Search for airport 
image banner adimage banner adimage banner ad
image banner ad

KVBG - Vandenberg Afb

Located in Lompoc, United States

ICAO - VBG, IATA - VBG

Data provided by Airmate  

General information

Coordinates: N34°44'14" W120°35'4"
Elevation is 368 feet MSL.
Magnetic variation is 12° East
View others Airports in California

Operational data

Special qualification required
Current time UTC:
Current local time:
Weather
METAR: KVBG 211243Z AUTO 00000KT 7SM OVC005 12/12 A2996 RMK AO2 SLP148
View NOTAMs / SUP AIP / TFR affecting this airport [VIEW]
Communications frequencies: [VIEW]

Runways:

RWY identifierQFULength (ft)Width (ft)SurfaceLDA (ft)
12137°15000200CONC
30317°15000200CONC

Airport contact information

Address: Lompoc United States

Satellite view of KVBG